sensor_id;sensor_type;location;lat;lon;timestamp;pressure;altitude;pressure_sealevel;temperature;humidity
61898;BME280;47850;50.274;18.908;2023-04-27T00:00:18;98234.91;;;3.35;68.09
61898;BME280;47850;50.274;18.908;2023-04-27T00:03:14;98239.77;;;3.35;67.99
61898;BME280;47850;50.274;18.908;2023-04-27T00:05:42;98241.17;;;3.34;67.96
61898;BME280;47850;50.274;18.908;2023-04-27T00:08:10;98243.23;;;3.33;68.14
61898;BME280;47850;50.274;18.908;2023-04-27T00:10:38;98239.98;;;3.32;68.19
61898;BME280;47850;50.274;18.908;2023-04-27T00:13:05;98238.74;;;3.29;68.48
61898;BME280;47850;50.274;18.908;2023-04-27T00:15:33;98235.45;;;3.26;68.47
61898;BME280;47850;50.274;18.908;2023-04-27T00:18:01;98236.69;;;3.22;68.34
61898;BME280;47850;50.274;18.908;2023-04-27T00:20:29;98233.52;;;3.20;68.55
61898;BME280;47850;50.274;18.908;2023-04-27T00:22:56;98231.57;;;3.18;68.61
61898;BME280;47850;50.274;18.908;2023-04-27T00:25:24;98234.54;;;3.16;68.71
61898;BME280;47850;50.274;18.908;2023-04-27T00:27:52;98234.05;;;3.12;68.83
61898;BME280;47850;50.274;18.908;2023-04-27T00:30:20;98234.91;;;3.09;68.89
61898;BME280;47850;50.274;18.908;2023-04-27T00:32:47;98230.66;;;3.07;69.01
61898;BME280;47850;50.274;18.908;2023-04-27T00:35:15;98231.04;;;3.06;69.04
61898;BME280;47850;50.274;18.908;2023-04-27T00:37:42;98233.30;;;3.05;68.99
61898;BME280;47850;50.274;18.908;2023-04-27T00:40:10;98232.96;;;3.04;69.19
61898;BME280;47850;50.274;18.908;2023-04-27T00:42:38;98232.59;;;3.01;69.25
61898;BME280;47850;50.274;18.908;2023-04-27T00:45:06;98232.64;;;2.99;69.43
61898;BME280;47850;50.274;18.908;2023-04-27T00:47:34;98235.27;;;2.99;69.46
61898;BME280;47850;50.274;18.908;2023-04-27T00:50:02;98235.45;;;2.98;69.62
61898;BME280;47850;50.274;18.908;2023-04-27T00:52:30;98237.27;;;2.96;69.92
61898;BME280;47850;50.274;18.908;2023-04-27T00:54:58;98235.65;;;2.93;69.94
61898;BME280;47850;50.274;18.908;2023-04-27T00:57:28;98235.00;;;2.90;70.11
61898;BME280;47850;50.274;18.908;2023-04-27T00:59:56;98235.59;;;2.89;70.25
61898;BME280;47850;50.274;18.908;2023-04-27T01:02:24;98240.44;;;2.88;70.37
61898;BME280;47850;50.274;18.908;2023-04-27T01:04:51;98240.66;;;2.89;70.38
61898;BME280;47850;50.274;18.908;2023-04-27T01:07:23;98237.32;;;2.89;70.50
61898;BME280;47850;50.274;18.908;2023-04-27T01:09:51;98233.44;;;2.90;70.76
61898;BME280;47850;50.274;18.908;2023-04-27T01:12:19;98233.81;;;2.90;70.68
61898;BME280;47850;50.274;18.908;2023-04-27T01:14:47;98233.33;;;2.89;70.81
61898;BME280;47850;50.274;18.908;2023-04-27T01:17:15;98234.45;;;2.87;70.70
61898;BME280;47850;50.274;18.908;2023-04-27T01:19:43;98239.69;;;2.85;70.94
61898;BME280;47850;50.274;18.908;2023-04-27T01:22:11;98237.84;;;2.82;71.31
61898;BME280;47850;50.274;18.908;2023-04-27T01:24:41;98238.37;;;2.79;71.62
61898;BME280;47850;50.274;18.908;2023-04-27T01:27:09;98240.37;;;2.76;71.50
61898;BME280;47850;50.274;18.908;2023-04-27T01:29:36;98244.98;;;2.73;71.46
61898;BME280;47850;50.274;18.908;2023-04-27T01:32:04;98240.61;;;2.72;71.79
61898;BME280;47850;50.274;18.908;2023-04-27T01:34:32;98243.05;;;2.73;71.83
61898;BME280;47850;50.274;18.908;2023-04-27T01:37:00;98244.72;;;2.74;71.88
61898;BME280;47850;50.274;18.908;2023-04-27T01:39:27;98246.49;;;2.74;71.99
61898;BME280;47850;50.274;18.908;2023-04-27T01:41:55;98248.38;;;2.74;72.24
61898;BME280;47850;50.274;18.908;2023-04-27T01:44:23;98247.67;;;2.75;72.23
61898;BME280;47850;50.274;18.908;2023-04-27T01:46:51;98248.65;;;2.75;72.11
61898;BME280;47850;50.274;18.908;2023-04-27T01:49:18;98246.39;;;2.75;72.31
61898;BME280;47850;50.274;18.908;2023-04-27T01:51:46;98246.45;;;2.77;72.30
61898;BME280;47850;50.274;18.908;2023-04-27T01:54:13;98251.41;;;2.78;72.31
61898;BME280;47850;50.274;18.908;2023-04-27T01:56:41;98248.02;;;2.78;72.51
61898;BME280;47850;50.274;18.908;2023-04-27T01:59:09;98246.87;;;2.75;72.56
61898;BME280;47850;50.274;18.908;2023-04-27T02:01:36;98252.20;;;2.71;72.60
61898;BME280;47850;50.274;18.908;2023-04-27T02:04:04;98252.62;;;2.68;72.96
61898;BME280;47850;50.274;18.908;2023-04-27T02:06:32;98250.63;;;2.65;72.94
61898;BME280;47850;50.274;18.908;2023-04-27T02:08:59;98255.78;;;2.62;73.10
61898;BME280;47850;50.274;18.908;2023-04-27T02:11:27;98253.95;;;2.60;73.23
61898;BME280;47850;50.274;18.908;2023-04-27T02:13:54;98253.61;;;2.59;73.43
61898;BME280;47850;50.274;18.908;2023-04-27T02:16:22;98247.52;;;2.58;73.59
61898;BME280;47850;50.274;18.908;2023-04-27T02:18:50;98246.78;;;2.57;73.73
61898;BME280;47850;50.274;18.908;2023-04-27T02:21:20;98247.80;;;2.55;73.64
61898;BME280;47850;50.274;18.908;2023-04-27T02:23:48;98246.82;;;2.53;73.85
61898;BME280;47850;50.274;18.908;2023-04-27T02:26:16;98249.98;;;2.51;74.16
61898;BME280;47850;50.274;18.908;2023-04-27T02:28:45;98248.15;;;2.48;74.14
61898;BME280;47850;50.274;18.908;2023-04-27T02:31:16;98245.34;;;2.46;74.44
61898;BME280;47850;50.274;18.908;2023-04-27T02:33:44;98247.05;;;2.42;74.61
61898;BME280;47850;50.274;18.908;2023-04-27T02:36:11;98244.34;;;2.39;74.68
61898;BME280;47850;50.274;18.908;2023-04-27T02:38:39;98248.11;;;2.38;74.72
61898;BME280;47850;50.274;18.908;2023-04-27T02:41:07;98250.54;;;2.38;74.88
61898;BME280;47850;50.274;18.908;2023-04-27T02:43:34;98247.90;;;2.40;75.10
61898;BME280;47850;50.274;18.908;2023-04-27T02:46:02;98250.59;;;2.41;75.08
61898;BME280;47850;50.274;18.908;2023-04-27T02:48:30;98245.70;;;2.39;74.99
61898;BME280;47850;50.274;18.908;2023-04-27T02:51:01;98244.19;;;2.37;75.33
61898;BME280;47850;50.274;18.908;2023-04-27T02:53:29;98246.33;;;2.34;75.33
61898;BME280;47850;50.274;18.908;2023-04-27T02:55:57;98245.61;;;2.30;75.45
61898;BME280;47850;50.274;18.908;2023-04-27T02:58:25;98246.82;;;2.25;75.90
61898;BME280;47850;50.274;18.908;2023-04-27T03:00:56;98247.02;;;2.23;75.89
61898;BME280;47850;50.274;18.908;2023-04-27T03:03:23;98253.16;;;2.21;75.93
61898;BME280;47850;50.274;18.908;2023-04-27T03:05:51;98250.25;;;2.21;75.97
61898;BME280;47850;50.274;18.908;2023-04-27T03:08:19;98251.01;;;2.22;75.95
61898;BME280;47850;50.274;18.908;2023-04-27T03:10:46;98253.66;;;2.22;75.80
61898;BME280;47850;50.274;18.908;2023-04-27T03:13:14;98257.31;;;2.21;75.90
61898;BME280;47850;50.274;18.908;2023-04-27T03:15:42;98254.34;;;2.21;76.00
61898;BME280;47850;50.274;18.908;2023-04-27T03:18:09;98257.59;;;2.22;75.91
61898;BME280;47850;50.274;18.908;2023-04-27T03:20:37;98262.90;;;2.22;75.93
61898;BME280;47850;50.274;18.908;2023-04-27T03:23:05;98263.27;;;2.22;75.63
61898;BME280;47850;50.274;18.908;2023-04-27T03:25:33;98268.44;;;2.20;75.73
61898;BME280;47850;50.274;18.908;2023-04-27T03:28:01;98268.42;;;2.19;75.64
61898;BME280;47850;50.274;18.908;2023-04-27T03:30:28;98269.77;;;2.17;75.77
61898;BME280;47850;50.274;18.908;2023-04-27T03:32:56;98268.83;;;2.13;76.18
61898;BME280;47850;50.274;18.908;2023-04-27T03:35:24;98270.31;;;2.10;76.19
61898;BME280;47850;50.274;18.908;2023-04-27T03:37:51;98274.61;;;2.06;76.47
61898;BME280;47850;50.274;18.908;2023-04-27T03:40:19;98275.45;;;2.04;76.75
61898;BME280;47850;50.274;18.908;2023-04-27T03:42:47;98277.45;;;2.02;76.85
61898;BME280;47850;50.274;18.908;2023-04-27T03:45:15;98275.56;;;2.01;76.99
61898;BME280;47850;50.274;18.908;2023-04-27T03:47:44;98281.15;;;2.02;77.16
61898;BME280;47850;50.274;18.908;2023-04-27T03:50:12;98277.19;;;2.05;77.07
61898;BME280;47850;50.274;18.908;2023-04-27T03:52:40;98278.34;;;2.10;77.19
61898;BME280;47850;50.274;18.908;2023-04-27T03:55:07;98277.77;;;2.16;76.98
61898;BME280;47850;50.274;18.908;2023-04-27T03:57:35;98281.73;;;2.21;76.92
61898;BME280;47850;50.274;18.908;2023-04-27T04:00:03;98282.09;;;2.28;77.00
61898;BME280;47850;50.274;18.908;2023-04-27T04:02:34;98289.95;;;2.38;76.49
61898;BME280;47850;50.274;18.908;2023-04-27T04:05:02;98286.48;;;2.48;76.24
61898;BME280;47850;50.274;18.908;2023-04-27T04:07:32;98291.84;;;2.55;75.96
61898;BME280;47850;50.274;18.908;2023-04-27T04:10:00;98292.46;;;2.64;75.71
61898;BME280;47850;50.274;18.908;2023-04-27T04:12:27;98292.48;;;2.71;75.36
61898;BME280;47850;50.274;18.908;2023-04-27T04:14:55;98294.54;;;2.74;75.33
61898;BME280;47850;50.274;18.908;2023-04-27T04:17:22;98301.01;;;2.76;75.51
61898;BME280;47850;50.274;18.908;2023-04-27T04:19:50;98302.09;;;2.76;75.56
61898;BME280;47850;50.274;18.908;2023-04-27T04:22:18;98301.38;;;2.76;75.73
61898;BME280;47850;50.274;18.908;2023-04-27T04:24:46;98305.33;;;2.77;75.97
61898;BME280;47850;50.274;18.908;2023-04-27T04:27:13;98305.81;;;2.77;75.88
61898;BME280;47850;50.274;18.908;2023-04-27T04:29:41;98309.14;;;2.79;76.29
61898;BME280;47850;50.274;18.908;2023-04-27T04:32:09;98305.15;;;2.79;76.00
61898;BME280;47850;50.274;18.908;2023-04-27T04:34:38;98307.98;;;2.81;76.08
61898;BME280;47850;50.274;18.908;2023-04-27T04:37:06;98311.86;;;2.84;75.79
61898;BME280;47850;50.274;18.908;2023-04-27T04:39:34;98311.86;;;2.87;76.00
61898;BME280;47850;50.274;18.908;2023-04-27T04:42:01;98314.40;;;2.90;76.06
61898;BME280;47850;50.274;18.908;2023-04-27T04:44:30;98315.64;;;2.92;76.01
61898;BME280;47850;50.274;18.908;2023-04-27T04:46:58;98321.79;;;2.92;76.15
61898;BME280;47850;50.274;18.908;2023-04-27T04:49:25;98322.10;;;2.89;76.31
61898;BME280;47850;50.274;18.908;2023-04-27T04:51:53;98326.98;;;2.87;76.31
61898;BME280;47850;50.274;18.908;2023-04-27T04:54:20;98326.94;;;2.86;76.41
61898;BME280;47850;50.274;18.908;2023-04-27T04:56:48;98329.81;;;2.88;76.54
61898;BME280;47850;50.274;18.908;2023-04-27T04:59:16;98334.92;;;2.91;76.49
61898;BME280;47850;50.274;18.908;2023-04-27T05:01:44;98335.54;;;2.94;76.38
61898;BME280;47850;50.274;18.908;2023-04-27T05:04:11;98337.41;;;2.95;76.19
61898;BME280;47850;50.274;18.908;2023-04-27T05:06:39;98340.83;;;2.98;76.08
61898;BME280;47850;50.274;18.908;2023-04-27T05:09:07;98342.63;;;3.02;76.03
61898;BME280;47850;50.274;18.908;2023-04-27T05:11:34;98339.94;;;3.07;76.03
61898;BME280;47850;50.274;18.908;2023-04-27T05:14:02;98340.70;;;3.11;75.99
61898;BME280;47850;50.274;18.908;2023-04-27T05:16:29;98338.66;;;3.17;75.84
61898;BME280;47850;50.274;18.908;2023-04-27T05:18:57;98339.96;;;3.23;75.75
61898;BME280;47850;50.274;18.908;2023-04-27T05:21:25;98345.67;;;3.28;75.53
61898;BME280;47850;50.274;18.908;2023-04-27T05:23:53;98345.32;;;3.33;75.55
61898;BME280;47850;50.274;18.908;2023-04-27T05:26:20;98351.42;;;3.39;75.32
61898;BME280;47850;50.274;18.908;2023-04-27T05:28:48;98350.52;;;3.44;75.13
61898;BME280;47850;50.274;18.908;2023-04-27T05:31:16;98348.84;;;3.50;74.83
61898;BME280;47850;50.274;18.908;2023-04-27T05:33:43;98351.92;;;3.57;74.83
61898;BME280;47850;50.274;18.908;2023-04-27T05:36:11;98353.70;;;3.64;74.46
61898;BME280;47850;50.274;18.908;2023-04-27T05:38:38;98359.91;;;3.72;74.44
61898;BME280;47850;50.274;18.908;2023-04-27T05:41:06;98359.48;;;3.79;74.18
61898;BME280;47850;50.274;18.908;2023-04-27T05:43:34;98362.50;;;3.88;73.82
61898;BME280;47850;50.274;18.908;2023-04-27T05:46:04;98363.79;;;3.97;73.54
61898;BME280;47850;50.274;18.908;2023-04-27T05:48:32;98364.87;;;4.04;72.43
61898;BME280;47850;50.274;18.908;2023-04-27T05:51:00;98364.42;;;4.11;71.52
61898;BME280;47850;50.274;18.908;2023-04-27T05:53:28;98368.80;;;4.18;71.32
61898;BME280;47850;50.274;18.908;2023-04-27T05:55:56;98371.95;;;4.25;70.78
61898;BME280;47850;50.274;18.908;2023-04-27T05:58:25;98374.48;;;4.32;70.52
61898;BME280;47850;50.274;18.908;2023-04-27T06:00:53;98377.23;;;4.41;70.57
61898;BME280;47850;50.274;18.908;2023-04-27T06:03:21;98372.92;;;4.49;70.35
61898;BME280;47850;50.274;18.908;2023-04-27T06:05:52;98373.56;;;4.57;70.35
61898;BME280;47850;50.274;18.908;2023-04-27T06:08:20;98378.40;;;4.65;70.14
61898;BME280;47850;50.274;18.908;2023-04-27T06:10:51;98380.91;;;4.72;69.77
61898;BME280;47850;50.274;18.908;2023-04-27T06:13:19;98378.67;;;4.79;69.68
61898;BME280;47850;50.274;18.908;2023-04-27T06:15:47;98380.11;;;4.85;69.58
61898;BME280;47850;50.274;18.908;2023-04-27T06:18:17;98382.14;;;4.92;68.44
61898;BME280;47850;50.274;18.908;2023-04-27T06:20:44;98383.58;;;4.99;67.22
61898;BME280;47850;50.274;18.908;2023-04-27T06:23:13;98380.68;;;5.04;66.72
61898;BME280;47850;50.274;18.908;2023-04-27T06:25:41;98380.77;;;5.06;66.23
61898;BME280;47850;50.274;18.908;2023-04-27T06:28:08;98380.33;;;5.10;65.94
61898;BME280;47850;50.274;18.908;2023-04-27T06:30:36;98384.47;;;5.13;64.50
61898;BME280;47850;50.274;18.908;2023-04-27T06:33:04;98388.94;;;5.15;64.43
61898;BME280;47850;50.274;18.908;2023-04-27T06:35:31;98387.84;;;5.20;64.73
61898;BME280;47850;50.274;18.908;2023-04-27T06:37:59;98384.46;;;5.26;63.71
61898;BME280;47850;50.274;18.908;2023-04-27T06:40:27;98385.95;;;5.31;63.34
61898;BME280;47850;50.274;18.908;2023-04-27T06:42:54;98388.73;;;5.36;63.35
61898;BME280;47850;50.274;18.908;2023-04-27T06:45:22;98391.23;;;5.43;63.18
61898;BME280;47850;50.274;18.908;2023-04-27T06:47:50;98396.27;;;5.50;62.57
61898;BME280;47850;50.274;18.908;2023-04-27T06:50:17;98392.12;;;5.56;62.46
61898;BME280;47850;50.274;18.908;2023-04-27T06:52:45;98399.54;;;5.65;62.24
61898;BME280;47850;50.274;18.908;2023-04-27T06:55:15;98395.07;;;5.69;61.78
61898;BME280;47850;50.274;18.908;2023-04-27T06:57:43;98393.47;;;5.73;61.09
61898;BME280;47850;50.274;18.908;2023-04-27T07:00:11;98395.97;;;5.79;61.15
61898;BME280;47850;50.274;18.908;2023-04-27T07:02:40;98396.13;;;5.86;60.67
61898;BME280;47850;50.274;18.908;2023-04-27T07:05:07;98398.73;;;5.90;60.47
61898;BME280;47850;50.274;18.908;2023-04-27T07:07:35;98398.94;;;5.96;60.33
61898;BME280;47850;50.274;18.908;2023-04-27T07:10:03;98397.57;;;6.00;59.85
61898;BME280;47850;50.274;18.908;2023-04-27T07:12:31;98398.70;;;6.07;59.42
61898;BME280;47850;50.274;18.908;2023-04-27T07:14:59;98397.43;;;6.15;59.18
61898;BME280;47850;50.274;18.908;2023-04-27T07:17:26;98394.10;;;6.25;59.27
61898;BME280;47850;50.274;18.908;2023-04-27T07:19:54;98405.30;;;6.39;58.65
61898;BME280;47850;50.274;18.908;2023-04-27T07:22:22;98398.15;;;6.48;57.87
61898;BME280;47850;50.274;18.908;2023-04-27T07:24:50;98396.64;;;6.54;57.44
61898;BME280;47850;50.274;18.908;2023-04-27T07:27:17;98395.95;;;6.63;56.58
61898;BME280;47850;50.274;18.908;2023-04-27T07:29:45;98400.05;;;6.69;56.91
61898;BME280;47850;50.274;18.908;2023-04-27T07:32:13;98398.34;;;6.77;56.67
61898;BME280;47850;50.274;18.908;2023-04-27T07:34:41;98397.31;;;6.81;55.43
61898;BME280;47850;50.274;18.908;2023-04-27T07:37:09;98397.36;;;6.86;54.25
61898;BME280;47850;50.274;18.908;2023-04-27T07:39:36;98392.83;;;6.98;53.91
61898;BME280;47850;50.274;18.908;2023-04-27T07:42:04;98391.58;;;7.11;53.49
61898;BME280;47850;50.274;18.908;2023-04-27T07:44:32;98392.91;;;7.19;52.68
61898;BME280;47850;50.274;18.908;2023-04-27T07:46:59;98395.38;;;7.24;51.04
61898;BME280;47850;50.274;18.908;2023-04-27T07:49:30;98389.23;;;7.32;50.23
61898;BME280;47850;50.274;18.908;2023-04-27T07:51:58;98388.67;;;7.46;49.51
61898;BME280;47850;50.274;18.908;2023-04-27T07:54:26;98390.45;;;7.59;48.18
61898;BME280;47850;50.274;18.908;2023-04-27T07:56:54;98388.05;;;7.74;49.13
61898;BME280;47850;50.274;18.908;2023-04-27T07:59:21;98395.74;;;7.92;48.48
61898;BME280;47850;50.274;18.908;2023-04-27T08:01:49;98392.51;;;8.02;48.25
61898;BME280;47850;50.274;18.908;2023-04-27T08:04:17;98392.81;;;8.12;48.34
61898;BME280;47850;50.274;18.908;2023-04-27T08:06:45;98400.11;;;8.25;46.69
61898;BME280;47850;50.274;18.908;2023-04-27T08:09:12;98395.48;;;8.28;45.60
61898;BME280;47850;50.274;18.908;2023-04-27T08:11:40;98395.86;;;8.34;46.18
61898;BME280;47850;50.274;18.908;2023-04-27T08:14:08;98398.05;;;8.46;45.20
61898;BME280;47850;50.274;18.908;2023-04-27T08:16:40;98400.73;;;8.52;43.97
61898;BME280;47850;50.274;18.908;2023-04-27T08:19:08;98400.36;;;8.61;44.64
61898;BME280;47850;50.274;18.908;2023-04-27T08:21:37;98400.27;;;8.74;44.77
61898;BME280;47850;50.274;18.908;2023-04-27T08:24:04;98402.20;;;8.85;44.09
61898;BME280;47850;50.274;18.908;2023-04-27T08:26:32;98400.19;;;8.95;43.97
61898;BME280;47850;50.274;18.908;2023-04-27T08:29:01;98396.91;;;9.12;44.00
61898;BME280;47850;50.274;18.908;2023-04-27T08:31:29;98397.05;;;9.31;43.78
61898;BME280;47850;50.274;18.908;2023-04-27T08:33:57;98397.63;;;9.42;42.91
61898;BME280;47850;50.274;18.908;2023-04-27T08:36:25;98400.52;;;9.45;43.03
61898;BME280;47850;50.274;18.908;2023-04-27T08:38:55;98399.07;;;9.45;42.67
61898;BME280;47850;50.274;18.908;2023-04-27T08:41:23;98400.80;;;9.39;42.50
61898;BME280;47850;50.274;18.908;2023-04-27T08:43:51;98398.45;;;9.24;42.09
61898;BME280;47850;50.274;18.908;2023-04-27T08:46:20;98400.63;;;9.08;42.56
61898;BME280;47850;50.274;18.908;2023-04-27T08:48:51;98405.48;;;9.02;43.12
61898;BME280;47850;50.274;18.908;2023-04-27T08:51:20;98401.88;;;9.03;43.21
61898;BME280;47850;50.274;18.908;2023-04-27T08:53:49;98402.10;;;9.08;42.89
61898;BME280;47850;50.274;18.908;2023-04-27T08:56:17;98407.42;;;9.06;42.49
61898;BME280;47850;50.274;18.908;2023-04-27T08:58:45;98405.83;;;9.04;42.66
61898;BME280;47850;50.274;18.908;2023-04-27T09:01:13;98407.18;;;9.07;43.31
61898;BME280;47850;50.274;18.908;2023-04-27T09:03:41;98404.56;;;9.13;42.64
61898;BME280;47850;50.274;18.908;2023-04-27T09:06:09;98411.61;;;9.12;42.52
61898;BME280;47850;50.274;18.908;2023-04-27T09:08:40;98411.23;;;9.17;42.51
61898;BME280;47850;50.274;18.908;2023-04-27T09:11:08;98413.83;;;9.20;42.18
61898;BME280;47850;50.274;18.908;2023-04-27T09:13:37;98417.71;;;9.11;41.79
61898;BME280;47850;50.274;18.908;2023-04-27T09:16:05;98413.22;;;9.07;41.80
61898;BME280;47850;50.274;18.908;2023-04-27T09:18:36;98410.09;;;9.11;42.09
61898;BME280;47850;50.274;18.908;2023-04-27T09:21:08;98406.45;;;9.21;42.23
61898;BME280;47850;50.274;18.908;2023-04-27T09:23:37;98411.36;;;9.29;42.20
61898;BME280;47850;50.274;18.908;2023-04-27T09:26:05;98415.05;;;9.35;42.14
61898;BME280;47850;50.274;18.908;2023-04-27T09:28:37;98410.98;;;9.52;41.50
61898;BME280;47850;50.274;18.908;2023-04-27T09:31:05;98409.63;;;9.69;41.34
61898;BME280;47850;50.274;18.908;2023-04-27T09:33:35;98410.64;;;9.86;40.67
61898;BME280;47850;50.274;18.908;2023-04-27T09:36:04;98402.38;;;10.01;40.30
61898;BME280;47850;50.274;18.908;2023-04-27T09:38:32;98404.33;;;10.22;39.93
61898;BME280;47850;50.274;18.908;2023-04-27T09:41:00;98395.39;;;10.46;38.77
61898;BME280;47850;50.274;18.908;2023-04-27T09:43:29;98401.02;;;10.71;38.77
61898;BME280;47850;50.274;18.908;2023-04-27T09:45:57;98394.63;;;10.93;38.31
61898;BME280;47850;50.274;18.908;2023-04-27T09:48:25;98394.92;;;11.28;38.80
61898;BME280;47850;50.274;18.908;2023-04-27T09:50:53;98394.08;;;11.69;38.41
61898;BME280;47850;50.274;18.908;2023-04-27T09:53:25;98388.42;;;11.98;38.01
61898;BME280;47850;50.274;18.908;2023-04-27T10:06:56;98401.95;;;11.06;37.01
61898;BME280;47850;50.274;18.908;2023-04-27T10:09:26;98395.55;;;10.75;37.46
61898;BME280;47850;50.274;18.908;2023-04-27T10:11:54;98395.92;;;10.49;37.89
61898;BME280;47850;50.274;18.908;2023-04-27T10:14:23;98403.55;;;10.35;38.27
61898;BME280;47850;50.274;18.908;2023-04-27T10:16:52;98400.08;;;10.24;37.36
61898;BME280;47850;50.274;18.908;2023-04-27T10:19:20;98406.88;;;10.09;37.41
61898;BME280;47850;50.274;18.908;2023-04-27T10:21:55;98407.59;;;9.95;37.71
61898;BME280;47850;50.274;18.908;2023-04-27T10:24:39;98407.42;;;9.88;37.98
61898;BME280;47850;50.274;18.908;2023-04-27T10:27:08;98415.04;;;9.82;39.01
61898;BME280;47850;50.274;18.908;2023-04-27T10:29:38;98415.52;;;9.70;39.25
61898;BME280;47850;50.274;18.908;2023-04-27T10:32:07;98411.51;;;9.58;39.64
61898;BME280;47850;50.274;18.908;2023-04-27T10:34:36;98411.58;;;9.52;39.90
61898;BME280;47850;50.274;18.908;2023-04-27T10:37:08;98408.27;;;9.56;40.02
61898;BME280;47850;50.274;18.908;2023-04-27T10:39:37;98414.40;;;9.62;39.32
61898;BME280;47850;50.274;18.908;2023-04-27T10:42:05;98413.05;;;9.66;38.61
61898;BME280;47850;50.274;18.908;2023-04-27T10:44:33;98415.95;;;9.75;38.91
61898;BME280;47850;50.274;18.908;2023-04-27T10:47:14;98423.59;;;9.82;38.79
61898;BME280;47850;50.274;18.908;2023-04-27T10:49:42;98417.08;;;9.97;38.93
61898;BME280;47850;50.274;18.908;2023-04-27T10:52:10;98413.27;;;10.18;38.39
61898;BME280;47850;50.274;18.908;2023-04-27T10:54:37;98416.16;;;10.40;38.02
61898;BME280;47850;50.274;18.908;2023-04-27T10:57:06;98410.30;;;10.66;37.04
61898;BME280;47850;50.274;18.908;2023-04-27T10:59:34;98411.45;;;10.94;36.49
61898;BME280;47850;50.274;18.908;2023-04-27T11:02:13;98405.94;;;11.21;36.36
61898;BME280;47850;50.274;18.908;2023-04-27T11:04:41;98403.17;;;11.41;35.83
61898;BME280;47850;50.274;18.908;2023-04-27T11:07:08;98404.95;;;11.60;35.35
61898;BME280;47850;50.274;18.908;2023-04-27T11:09:37;98407.95;;;11.81;35.22
61898;BME280;47850;50.274;18.908;2023-04-27T11:12:05;98410.64;;;11.90;34.55
61898;BME280;47850;50.274;18.908;2023-04-27T11:14:34;98415.52;;;11.86;34.78
61898;BME280;47850;50.274;18.908;2023-04-27T11:17:03;98415.17;;;11.78;34.45
61898;BME280;47850;50.274;18.908;2023-04-27T11:19:31;98416.38;;;11.62;35.09
61898;BME280;47850;50.274;18.908;2023-04-27T11:22:03;98416.64;;;11.47;35.31
61898;BME280;47850;50.274;18.908;2023-04-27T11:24:31;98422.91;;;11.24;35.79
61898;BME280;47850;50.274;18.908;2023-04-27T11:26:59;98419.61;;;11.09;36.52
61898;BME280;47850;50.274;18.908;2023-04-27T11:29:36;98418.78;;;11.00;37.00
61898;BME280;47850;50.274;18.908;2023-04-27T11:32:04;98418.91;;;10.81;37.44
61898;BME280;47850;50.274;18.908;2023-04-27T11:34:32;98424.07;;;10.72;37.54
61898;BME280;47850;50.274;18.908;2023-04-27T11:37:04;98423.10;;;10.71;37.57
61898;BME280;47850;50.274;18.908;2023-04-27T11:39:33;98420.15;;;10.78;37.52
61898;BME280;47850;50.274;18.908;2023-04-27T11:42:15;98421.69;;;10.85;37.27
61898;BME280;47850;50.274;18.908;2023-04-27T11:44:57;98424.70;;;10.91;37.11
61898;BME280;47850;50.274;18.908;2023-04-27T11:47:26;98422.93;;;11.11;37.22
61898;BME280;47850;50.274;18.908;2023-04-27T11:49:55;98423.05;;;11.30;36.87
61898;BME280;47850;50.274;18.908;2023-04-27T11:52:33;98422.67;;;11.61;36.90
61898;BME280;47850;50.274;18.908;2023-04-27T11:55:01;98417.58;;;11.79;35.40
61898;BME280;47850;50.274;18.908;2023-04-27T11:57:31;98419.10;;;11.98;35.96
61898;BME280;47850;50.274;18.908;2023-04-27T11:59:59;98422.83;;;12.37;35.77
61898;BME280;47850;50.274;18.908;2023-04-27T12:02:28;98424.35;;;12.69;34.89
61898;BME280;47850;50.274;18.908;2023-04-27T12:04:57;98419.94;;;13.02;34.41
61898;BME280;47850;50.274;18.908;2023-04-27T12:07:25;98426.27;;;13.19;33.49
61898;BME280;47850;50.274;18.908;2023-04-27T12:09:53;98426.08;;;13.32;33.13
61898;BME280;47850;50.274;18.908;2023-04-27T12:12:21;98420.89;;;13.39;32.89
61898;BME280;47850;50.274;18.908;2023-04-27T12:14:49;98424.28;;;13.56;33.25
61898;BME280;47850;50.274;18.908;2023-04-27T12:17:17;98421.61;;;13.79;32.44
61898;BME280;47850;50.274;18.908;2023-04-27T12:19:45;98418.23;;;13.79;32.41
61898;BME280;47850;50.274;18.908;2023-04-27T12:22:12;98412.97;;;13.71;32.49
61898;BME280;47850;50.274;18.908;2023-04-27T12:24:40;98416.94;;;13.71;32.58
61898;BME280;47850;50.274;18.908;2023-04-27T12:27:08;98416.71;;;13.71;32.94
61898;BME280;47850;50.274;18.908;2023-04-27T12:29:36;98418.17;;;13.66;33.20
61898;BME280;47850;50.274;18.908;2023-04-27T12:32:04;98417.93;;;13.66;32.65
61898;BME280;47850;50.274;18.908;2023-04-27T12:34:32;98415.18;;;13.68;32.92
61898;BME280;47850;50.274;18.908;2023-04-27T12:37:00;98416.24;;;13.78;32.47
61898;BME280;47850;50.274;18.908;2023-04-27T12:39:28;98414.45;;;13.88;32.25
61898;BME280;47850;50.274;18.908;2023-04-27T12:41:56;98417.77;;;14.14;32.23
61898;BME280;47850;50.274;18.908;2023-04-27T12:44:25;98416.74;;;14.31;32.25
61898;BME280;47850;50.274;18.908;2023-04-27T12:46:53;98414.77;;;14.42;32.17
61898;BME280;47850;50.274;18.908;2023-04-27T12:49:21;98409.41;;;14.53;32.01
61898;BME280;47850;50.274;18.908;2023-04-27T12:51:49;98416.31;;;14.62;31.61
61898;BME280;47850;50.274;18.908;2023-04-27T12:54:18;98411.29;;;14.55;31.13
61898;BME280;47850;50.274;18.908;2023-04-27T12:56:46;98409.66;;;14.44;30.70
61898;BME280;47850;50.274;18.908;2023-04-27T12:59:14;98411.27;;;14.22;31.53
61898;BME280;47850;50.274;18.908;2023-04-27T13:01:43;98415.48;;;13.98;31.51
61898;BME280;47850;50.274;18.908;2023-04-27T13:04:16;98414.20;;;13.69;31.81
61898;BME280;47850;50.274;18.908;2023-04-27T13:06:44;98412.16;;;13.44;32.31
61898;BME280;47850;50.274;18.908;2023-04-27T13:09:12;98417.14;;;13.27;32.34
61898;BME280;47850;50.274;18.908;2023-04-27T13:11:40;98414.83;;;13.13;32.32
61898;BME280;47850;50.274;18.908;2023-04-27T13:14:08;98409.52;;;13.13;32.60